createdAt,value
2022-11-21T00:00:22.318Z,85.19
2022-11-21T00:02:50.770Z,85.15
2022-11-21T00:05:19.710Z,85.31
2022-11-21T00:07:49.873Z,84.82
2022-11-21T00:10:18.514Z,84.69
2022-11-21T00:12:48.356Z,85.25
2022-11-21T00:15:16.834Z,85.87
2022-11-21T00:17:45.222Z,85.85
2022-11-21T00:20:13.778Z,86.05
2022-11-21T00:22:42.052Z,85.88
2022-11-21T00:25:11.284Z,85.54
2022-11-21T00:27:39.843Z,85.44
2022-11-21T00:30:12.441Z,86.11
2022-11-21T00:32:40.945Z,85.33
2022-11-21T00:35:10.034Z,85.34
2022-11-21T00:37:38.534Z,85.18
2022-11-21T00:40:08.292Z,84.92
2022-11-21T00:42:36.644Z,85.26
2022-11-21T00:45:06.028Z,85.52
2022-11-21T00:47:35.783Z,85.41
2022-11-21T00:50:04.512Z,84.90
2022-11-21T00:52:32.964Z,84.71
2022-11-21T00:55:01.307Z,84.74
2022-11-21T00:57:29.724Z,84.79
2022-11-21T00:59:58.123Z,84.42
2022-11-21T01:02:26.395Z,84.38
2022-11-21T01:04:56.056Z,84.60
2022-11-21T01:07:24.693Z,84.69
2022-11-21T01:09:53.032Z,84.64
2022-11-21T01:12:21.535Z,84.33
2022-11-21T01:14:50.522Z,84.02
2022-11-21T01:17:18.948Z,84.09
2022-11-21T01:19:47.372Z,84.49
2022-11-21T01:22:17.333Z,84.44
2022-11-21T01:24:45.619Z,84.98
2022-11-21T01:27:14.034Z,85.31
2022-11-21T01:29:42.327Z,86.54
2022-11-21T01:32:10.649Z,86.54
2022-11-21T01:34:38.973Z,87.54
2022-11-21T01:37:07.381Z,88.29
2022-11-21T01:39:37.035Z,88.78
2022-11-21T01:42:05.780Z,89.45
2022-11-21T01:44:51.140Z,90.14
2022-11-21T01:47:19.462Z,90.15
2022-11-21T01:49:49.971Z,91.50
2022-11-21T01:52:22.821Z,91.99
2022-11-21T01:54:58.155Z,92.89
2022-11-21T01:57:29.971Z,94.58
2022-11-21T02:00:03.363Z,94.47
2022-11-21T02:02:37.265Z,95.29
2022-11-21T02:05:09.346Z,95.89
2022-11-21T02:07:42.271Z,95.18
2022-11-21T02:10:13.646Z,95.26
2022-11-21T02:12:47.290Z,95.69
2022-11-21T02:15:16.920Z,95.68
2022-11-21T02:17:45.273Z,96.18
2022-11-21T02:20:17.149Z,96.11
2022-11-21T02:22:55.957Z,96.06
2022-11-21T02:25:29.604Z,96.19
2022-11-21T02:28:03.209Z,96.24
2022-11-21T02:30:34.146Z,95.76
2022-11-21T02:33:02.685Z,96.53
2022-11-21T02:35:30.991Z,93.26
2022-11-21T02:38:02.586Z,93.51
2022-11-21T02:40:37.697Z,94.89
2022-11-21T02:43:13.813Z,95.00
2022-11-21T02:45:45.065Z,94.04
2022-11-21T02:48:14.331Z,93.92
2022-11-21T02:50:45.272Z,93.25
2022-11-21T02:53:16.784Z,93.46
2022-11-21T02:55:46.868Z,93.87
2022-11-21T02:58:15.540Z,92.48
2022-11-21T03:00:44.925Z,92.91
2022-11-21T03:03:13.355Z,93.37
2022-11-21T03:05:42.443Z,93.02
2022-11-21T03:08:11.330Z,92.42
2022-11-21T03:10:40.023Z,92.64
2022-11-21T03:13:09.672Z,92.50
2022-11-21T03:15:38.156Z,93.07
2022-11-21T03:18:06.730Z,93.03
2022-11-21T03:20:36.064Z,93.25
2022-11-21T03:23:04.909Z,92.88
2022-11-21T03:25:33.306Z,92.81
2022-11-21T03:28:01.888Z,92.51
2022-11-21T03:30:31.523Z,93.08
2022-11-21T03:33:00.420Z,93.31
2022-11-21T03:35:28.695Z,92.85
2022-11-21T03:37:57.072Z,92.62
2022-11-21T03:40:25.457Z,92.31
2022-11-21T03:42:53.991Z,93.09
2022-11-21T03:45:22.402Z,93.45
2022-11-21T03:47:52.012Z,92.50
2022-11-21T03:50:21.703Z,92.47
2022-11-21T03:52:49.945Z,91.33
2022-11-21T03:55:18.572Z,91.83
2022-11-21T03:57:46.897Z,91.82
2022-11-21T04:00:17.367Z,92.18
2022-11-21T04:02:45.831Z,91.86
2022-11-21T04:05:15.609Z,92.12
2022-11-21T04:07:43.984Z,92.18
2022-11-21T04:10:12.323Z,92.52
2022-11-21T04:12:40.626Z,92.37
2022-11-21T04:15:13.713Z,91.71
2022-11-21T04:17:42.789Z,92.15
2022-11-21T04:20:12.608Z,92.40
2022-11-21T04:22:42.261Z,92.45
2022-11-21T04:25:11.220Z,92.71
2022-11-21T04:27:39.765Z,92.63
2022-11-21T04:30:09.385Z,92.44
2022-11-21T04:32:37.675Z,92.76
2022-11-21T04:35:07.334Z,92.68
2022-11-21T04:37:35.649Z,92.41
2022-11-21T04:40:06.629Z,92.52
2022-11-21T04:42:35.089Z,92.56
2022-11-21T04:45:03.383Z,92.81
2022-11-21T04:47:31.751Z,93.39
2022-11-21T04:49:59.974Z,93.47
2022-11-21T04:52:28.325Z,93.71
2022-11-21T04:54:56.595Z,94.17
2022-11-21T04:57:28.180Z,93.52
2022-11-21T04:59:56.624Z,93.55
2022-11-21T05:02:25.113Z,93.38
2022-11-21T05:04:53.498Z,93.69
2022-11-21T05:07:21.729Z,93.79
2022-11-21T05:09:50.127Z,93.79
2022-11-21T05:12:36.153Z,93.87
2022-11-21T05:15:07.064Z,93.18
2022-11-21T05:17:35.357Z,93.61
2022-11-21T05:20:04.320Z,93.24
2022-11-21T05:22:32.719Z,93.33
2022-11-21T05:25:01.102Z,94.01
2022-11-21T05:27:29.430Z,94.22
2022-11-21T05:29:57.756Z,94.74
2022-11-21T05:32:27.658Z,94.78
2022-11-21T05:34:55.924Z,94.86
2022-11-21T05:37:24.198Z,94.44
2022-11-21T05:39:52.649Z,94.86
2022-11-21T05:42:41.758Z,94.41
2022-11-21T05:45:10.261Z,94.42
2022-11-21T05:47:42.288Z,94.28
2022-11-21T05:50:11.242Z,94.49
2022-11-21T05:52:39.542Z,94.13
2022-11-21T05:55:08.938Z,94.64
2022-11-21T05:57:37.532Z,94.47
2022-11-21T06:00:07.432Z,94.16
2022-11-21T06:02:53.506Z,93.41
2022-11-21T06:05:23.588Z,93.16
2022-11-21T06:07:51.932Z,93.09
2022-11-21T06:10:20.419Z,93.05
2022-11-21T06:12:48.861Z,93.27
2022-11-21T06:15:17.418Z,92.96
2022-11-21T06:17:45.730Z,93.31
2022-11-21T06:20:14.077Z,93.36
2022-11-21T06:22:44.019Z,93.96
2022-11-21T06:25:12.372Z,94.39
2022-11-21T06:27:40.868Z,93.88
2022-11-21T06:30:10.912Z,93.78
2022-11-21T06:32:39.451Z,93.66
2022-11-21T06:35:08.776Z,93.63
2022-11-21T06:37:37.170Z,93.73
2022-11-21T06:40:08.590Z,93.59
2022-11-21T06:42:37.048Z,93.55
2022-11-21T06:45:06.846Z,93.30
2022-11-21T06:47:35.473Z,93.14
2022-11-21T06:50:03.989Z,93.53
2022-11-21T06:52:34.562Z,93.57
2022-11-21T06:55:03.747Z,93.63
2022-11-21T06:57:33.734Z,92.65
2022-11-21T07:00:02.201Z,92.86
2022-11-21T07:02:30.476Z,92.65
2022-11-21T07:04:58.920Z,92.45
2022-11-21T07:07:27.348Z,92.23
2022-11-21T07:09:55.798Z,92.22
2022-11-21T07:12:41.970Z,92.96
2022-11-21T07:15:12.802Z,93.58
2022-11-21T07:17:41.290Z,93.43
2022-11-21T07:20:12.148Z,93.49
2022-11-21T07:22:40.612Z,94.03
2022-11-21T07:25:09.940Z,94.31
2022-11-21T07:27:38.453Z,93.86
2022-11-21T07:30:08.708Z,93.69
2022-11-21T07:32:38.851Z,93.69
2022-11-21T07:35:09.212Z,93.35
2022-11-21T07:37:40.466Z,93.09
2022-11-21T07:40:10.047Z,92.94
2022-11-21T07:42:38.584Z,92.92
2022-11-21T07:45:08.071Z,92.99
2022-11-21T07:47:37.888Z,93.08
2022-11-21T07:50:08.036Z,93.56
2022-11-21T07:52:36.842Z,93.17
2022-11-21T07:55:07.125Z,92.99
2022-11-21T07:57:36.846Z,92.58
2022-11-21T08:00:06.253Z,92.34
2022-11-21T08:02:34.677Z,92.17
2022-11-21T08:05:04.547Z,93.21
2022-11-21T08:07:32.858Z,93.05
2022-11-21T08:10:01.211Z,92.46
2022-11-21T08:12:29.935Z,92.68
2022-11-21T08:14:58.191Z,91.81
2022-11-21T08:17:27.572Z,91.87
2022-11-21T08:19:55.950Z,92.16
2022-11-21T08:22:25.819Z,92.07
2022-11-21T08:24:54.428Z,91.65
2022-11-21T08:27:24.596Z,91.10
2022-11-21T08:29:53.098Z,91.15
2022-11-21T08:32:21.593Z,90.82
2022-11-21T08:34:49.895Z,91.03
2022-11-21T08:37:18.535Z,91.00
2022-11-21T08:39:48.188Z,91.55
2022-11-21T08:42:16.628Z,90.05
2022-11-21T08:44:44.968Z,88.49
2022-11-21T08:47:13.615Z,87.13
2022-11-21T08:49:42.568Z,86.57
2022-11-21T08:52:10.981Z,87.27
2022-11-21T08:54:39.308Z,87.17
2022-11-21T08:57:09.025Z,86.89
2022-11-21T08:59:37.619Z,87.25
2022-11-21T09:02:06.035Z,87.66
2022-11-21T09:04:34.421Z,87.94
2022-11-21T09:07:04.226Z,87.47
2022-11-21T09:09:34.016Z,86.53
2022-11-21T09:12:03.427Z,86.39
2022-11-21T09:14:51.211Z,85.45
2022-11-21T09:17:36.964Z,86.03
2022-11-21T09:20:06.870Z,86.03
2022-11-21T09:22:35.158Z,85.07
2022-11-21T09:25:03.666Z,84.69
2022-11-21T09:27:32.488Z,84.67
2022-11-21T09:30:02.343Z,83.83
2022-11-21T09:32:30.756Z,83.18
2022-11-21T09:34:59.170Z,80.92
2022-11-21T09:37:27.427Z,80.63
2022-11-21T09:39:55.825Z,81.78
2022-11-21T09:42:48.525Z,81.74
2022-11-21T09:45:24.797Z,78.52
2022-11-21T09:47:54.357Z,79.07
2022-11-21T09:50:32.842Z,78.71
2022-11-21T09:53:08.134Z,77.58
2022-11-21T09:55:44.148Z,79.00
2022-11-21T09:58:27.907Z,78.85
2022-11-21T10:00:58.608Z,79.69
2022-11-21T10:03:32.333Z,78.01
2022-11-21T10:06:06.147Z,78.02
2022-11-21T10:08:43.297Z,78.13
2022-11-21T10:11:20.798Z,78.94
2022-11-21T10:14:09.721Z,78.34
2022-11-21T10:16:50.266Z,79.68
2022-11-21T10:19:44.092Z,81.85
2022-11-21T10:22:49.410Z,82.72
2022-11-21T10:25:27.573Z,76.93
2022-11-21T10:28:03.714Z,75.04
2022-11-21T10:30:32.068Z,73.09
2022-11-21T10:33:05.800Z,73.40
2022-11-21T10:35:40.831Z,73.58
2022-11-21T10:38:19.346Z,70.24
2022-11-21T10:40:52.050Z,70.52
2022-11-21T10:43:50.269Z,70.30
2022-11-21T10:46:18.746Z,69.55
2022-11-21T10:48:56.916Z,70.53
2022-11-21T10:51:40.929Z,68.99
2022-11-21T10:54:29.352Z,68.74
2022-11-21T10:57:04.061Z,69.90
2022-11-21T10:59:32.479Z,69.22
2022-11-21T11:02:03.608Z,67.82
2022-11-21T11:04:42.886Z,66.51
2022-11-21T11:07:26.273Z,66.44
2022-11-21T11:10:16.256Z,66.87
2022-11-21T11:13:08.697Z,69.94
2022-11-21T11:16:02.560Z,72.01
2022-11-21T11:18:32.726Z,73.20
2022-11-21T11:21:19.664Z,75.47
2022-11-21T11:23:50.020Z,74.77
2022-11-21T11:26:25.889Z,75.31
2022-11-21T11:28:55.983Z,75.26
2022-11-21T11:31:24.553Z,75.59
2022-11-21T11:33:57.458Z,75.35
2022-11-21T11:36:40.340Z,74.54
2022-11-21T11:39:20.365Z,74.62
2022-11-21T11:42:50.425Z,74.42
2022-11-21T11:45:58.567Z,75.53
2022-11-21T11:48:28.794Z,75.63
2022-11-21T11:51:01.916Z,76.19
2022-11-21T11:53:38.496Z,72.40
2022-11-21T11:56:14.095Z,68.50
2022-11-21T11:58:47.457Z,61.08
2022-11-21T12:01:21.904Z,61.14
2022-11-21T12:03:59.984Z,59.67
2022-11-21T12:07:10.639Z,60.65
2022-11-21T12:09:33.979Z,60.64
2022-11-21T12:12:13.076Z,61.05
2022-11-21T12:15:19.403Z,58.95
2022-11-21T12:17:55.800Z,58.21
2022-11-21T12:20:30.870Z,56.19
2022-11-21T12:22:59.433Z,57.36
2022-11-21T12:25:34.150Z,57.89
2022-11-21T12:28:03.777Z,57.51
2022-11-21T12:30:53.101Z,58.21
2022-11-21T12:33:24.233Z,58.88
2022-11-21T12:36:18.664Z,58.53
2022-11-21T12:39:10.380Z,59.53
2022-11-21T12:42:18.948Z,58.12
2022-11-21T12:45:06.455Z,59.17
2022-11-21T12:48:28.546Z,58.48
2022-11-21T12:51:50.336Z,58.18
2022-11-21T12:54:53.188Z,57.53
2022-11-21T12:57:35.012Z,57.03
2022-11-21T13:00:16.000Z,55.39
2022-11-21T13:03:05.880Z,56.05
2022-11-21T13:05:38.780Z,55.14
2022-11-21T13:08:16.713Z,51.89
2022-11-21T13:11:17.499Z,51.24
2022-11-21T13:13:50.021Z,51.38
2022-11-21T13:16:36.931Z,51.31
2022-11-21T13:19:18.748Z,50.82
2022-11-21T13:21:50.068Z,49.27
2022-11-21T13:24:58.182Z,48.50
2022-11-21T13:27:38.516Z,50.33
2022-11-21T13:30:25.749Z,50.87
2022-11-21T13:32:55.725Z,51.96
2022-11-21T13:36:07.770Z,53.18
2022-11-21T13:39:33.775Z,53.56
2022-11-21T13:42:28.321Z,51.63
2022-11-21T13:44:56.808Z,52.60
2022-11-21T13:48:03.764Z,50.38
2022-11-21T13:51:19.769Z,51.11
2022-11-21T13:54:36.605Z,52.85
2022-11-21T13:57:20.395Z,54.00
2022-11-21T14:00:17.011Z,54.34
2022-11-21T14:03:35.103Z,55.54
2022-11-21T14:06:32.827Z,54.77
2022-11-21T14:09:28.564Z,56.21
2022-11-21T14:11:58.588Z,55.30
2022-11-21T14:14:32.135Z,56.58
2022-11-21T14:17:36.015Z,56.70
2022-11-21T14:20:17.295Z,57.57
2022-11-21T14:22:55.664Z,58.22
2022-11-21T14:25:34.088Z,58.43
2022-11-21T14:28:06.726Z,58.38
2022-11-21T14:30:38.330Z,58.38
2022-11-21T14:33:29.865Z,58.86
2022-11-21T14:36:11.053Z,58.88
2022-11-21T14:38:45.199Z,59.33
2022-11-21T14:41:30.695Z,59.16
2022-11-21T14:44:19.466Z,59.60
2022-11-21T14:46:49.193Z,59.63
2022-11-21T14:49:29.110Z,59.72
2022-11-21T14:52:18.986Z,59.23
2022-11-21T14:55:28.089Z,59.68
2022-11-21T14:57:46.065Z,59.57
2022-11-21T15:00:57.289Z,59.16
2022-11-21T15:03:21.599Z,59.55
2022-11-21T15:06:08.531Z,59.15
2022-11-21T15:09:33.409Z,59.14
2022-11-21T15:11:40.112Z,58.59
2022-11-21T15:14:22.545Z,57.30
2022-11-21T15:16:57.944Z,57.41
2022-11-21T15:19:29.511Z,58.22
2022-11-21T15:22:01.144Z,58.84
2022-11-21T15:24:40.136Z,58.47
2022-11-21T15:27:34.465Z,59.39
2022-11-21T15:30:25.339Z,59.60
2022-11-21T15:33:09.936Z,59.68
2022-11-21T15:35:51.543Z,60.67
2022-11-21T15:38:33.877Z,60.71
2022-11-21T15:41:26.865Z,60.05
2022-11-21T15:44:23.491Z,60.90
2022-11-21T15:46:54.816Z,60.94
2022-11-21T15:49:32.961Z,61.17
2022-11-21T15:54:50.793Z,60.87
2022-11-21T15:57:13.883Z,61.40
2022-11-21T15:57:22.232Z,61.10
2022-11-21T15:59:51.237Z,61.48
2022-11-21T16:02:19.683Z,61.70
2022-11-21T16:04:50.490Z,61.98
2022-11-21T16:07:18.863Z,62.21
2022-11-21T16:09:47.968Z,62.43
2022-11-21T16:12:16.641Z,62.66
2022-11-21T16:14:47.027Z,63.02
2022-11-21T16:17:15.828Z,63.46
2022-11-21T16:19:44.485Z,63.47
2022-11-21T16:22:12.808Z,64.38
2022-11-21T16:24:41.275Z,64.98
2022-11-21T16:27:09.724Z,65.89
2022-11-21T16:29:38.765Z,65.98
2022-11-21T16:32:09.184Z,66.62
2022-11-21T16:34:37.442Z,66.93
2022-11-21T16:37:07.715Z,67.48
2022-11-21T16:39:36.515Z,67.31
2022-11-21T16:42:05.492Z,67.22
2022-11-21T16:44:34.141Z,67.53
2022-11-21T16:47:06.805Z,67.49
2022-11-21T16:49:43.141Z,67.61
2022-11-21T16:52:12.494Z,67.51
2022-11-21T16:54:41.320Z,67.60
2022-11-21T16:57:09.557Z,68.15
2022-11-21T16:59:38.148Z,68.04
2022-11-21T17:02:06.632Z,68.53
2022-11-21T17:04:35.556Z,68.72
2022-11-21T17:07:05.565Z,68.57
2022-11-21T17:09:33.972Z,68.08
2022-11-21T17:12:02.278Z,68.16
2022-11-21T17:14:31.052Z,67.97
2022-11-21T17:16:59.694Z,68.16
2022-11-21T17:19:28.112Z,68.61
2022-11-21T17:21:56.791Z,69.21
2022-11-21T17:24:26.839Z,69.29
2022-11-21T17:26:55.412Z,69.38
2022-11-21T17:29:24.191Z,69.64
2022-11-21T17:31:52.556Z,69.83
2022-11-21T17:34:20.971Z,69.99
2022-11-21T17:36:50.441Z,70.03
2022-11-21T17:39:18.975Z,70.09
2022-11-21T17:41:48.753Z,70.16
2022-11-21T17:44:18.318Z,70.10
2022-11-21T17:46:47.227Z,70.14
2022-11-21T17:49:15.751Z,70.25
2022-11-21T17:51:44.097Z,70.07
2022-11-21T17:54:12.652Z,70.23
2022-11-21T17:56:45.967Z,70.62
2022-11-21T17:59:17.883Z,70.69
2022-11-21T18:01:46.543Z,70.60
2022-11-21T18:04:18.236Z,70.71
2022-11-21T18:06:47.179Z,71.39
2022-11-21T18:09:16.579Z,71.39
2022-11-21T18:11:46.217Z,71.49
2022-11-21T18:14:16.741Z,71.90
2022-11-21T18:16:51.139Z,71.83
2022-11-21T18:19:22.069Z,72.50
2022-11-21T18:21:51.829Z,72.44
2022-11-21T18:24:20.281Z,72.47
2022-11-21T18:26:49.114Z,72.29
2022-11-21T18:32:07.427Z,72.78
2022-11-21T18:34:35.940Z,73.06
2022-11-21T18:37:04.309Z,73.26
2022-11-21T18:39:32.853Z,72.40
2022-11-21T18:42:01.326Z,71.22
2022-11-21T18:44:31.088Z,70.64
2022-11-21T18:46:59.336Z,70.42
2022-11-21T18:49:28.072Z,70.35
2022-11-21T18:51:56.549Z,70.32
2022-11-21T18:54:24.868Z,70.07
2022-11-21T18:56:53.217Z,70.21
2022-11-21T18:59:21.696Z,70.40
2022-11-21T19:01:51.453Z,70.22
2022-11-21T19:04:19.835Z,70.33
2022-11-21T19:06:48.280Z,70.36
2022-11-21T19:09:16.568Z,70.73
2022-11-21T19:11:44.993Z,71.01
2022-11-21T19:14:13.356Z,71.31
2022-11-21T19:16:41.709Z,71.39
2022-11-21T19:22:01.736Z,71.39
2022-11-21T19:24:30.206Z,71.60
2022-11-21T19:26:58.594Z,72.15
2022-11-21T19:29:27.162Z,72.45
2022-11-21T19:31:55.826Z,72.78
2022-11-21T19:34:25.609Z,72.64
2022-11-21T19:36:54.307Z,72.52
2022-11-21T19:39:22.666Z,72.53
2022-11-21T19:41:51.236Z,73.41
2022-11-21T19:44:19.789Z,73.49
2022-11-21T19:46:49.565Z,73.37
2022-11-21T19:49:19.254Z,73.40
2022-11-21T19:51:49.170Z,73.14
2022-11-21T19:54:17.797Z,73.27
2022-11-21T19:56:46.368Z,73.36
2022-11-21T19:59:15.405Z,73.34
2022-11-21T20:01:48.182Z,72.75
2022-11-21T20:04:19.794Z,72.26
2022-11-21T20:06:49.980Z,71.79
2022-11-21T20:09:20.675Z,71.48
2022-11-21T20:11:51.357Z,71.74
2022-11-21T20:14:22.640Z,72.17
2022-11-21T20:16:53.763Z,72.03
2022-11-21T20:19:25.008Z,72.12
2022-11-21T20:21:54.873Z,71.87
2022-11-21T20:24:23.258Z,71.36
2022-11-21T20:26:51.849Z,71.23
2022-11-21T20:29:20.320Z,71.24
2022-11-21T20:31:48.877Z,71.15
2022-11-21T20:34:17.754Z,70.88
2022-11-21T20:36:46.522Z,70.93
2022-11-21T20:39:17.992Z,71.34
2022-11-21T20:41:48.048Z,71.59
2022-11-21T20:47:09.094Z,71.94
2022-11-21T20:49:37.558Z,72.06
2022-11-21T20:54:55.968Z,72.50
2022-11-21T20:57:25.500Z,72.42
2022-11-21T20:59:53.852Z,72.68
2022-11-21T21:02:22.238Z,73.00
2022-11-21T21:04:50.726Z,73.39
2022-11-21T21:07:19.164Z,73.38
2022-11-21T21:09:47.799Z,73.91
2022-11-21T21:12:17.938Z,74.13
2022-11-21T21:14:46.431Z,73.93
2022-11-21T21:17:14.746Z,74.11
2022-11-21T21:19:43.200Z,73.74
2022-11-21T21:22:11.716Z,73.79
2022-11-21T21:24:40.331Z,73.58
2022-11-21T21:27:11.474Z,73.80
2022-11-21T21:29:41.445Z,73.80
2022-11-21T21:32:09.912Z,74.00
2022-11-21T21:34:38.836Z,74.77
2022-11-21T21:37:07.231Z,74.51
2022-11-21T21:39:35.527Z,74.70
2022-11-21T21:42:03.984Z,74.62
2022-11-21T21:44:33.721Z,74.65
2022-11-21T21:47:03.745Z,74.67
2022-11-21T21:49:32.119Z,74.58
2022-11-21T21:52:00.472Z,74.43
2022-11-21T21:54:29.810Z,74.24
2022-11-21T21:56:58.675Z,74.10
2022-11-21T21:59:27.127Z,74.13
2022-11-21T22:01:55.438Z,74.15
2022-11-21T22:04:25.422Z,73.94
2022-11-21T22:06:53.814Z,73.75
2022-11-21T22:09:22.604Z,73.95
2022-11-21T22:11:50.936Z,73.95
2022-11-21T22:14:19.516Z,73.81
2022-11-21T22:16:47.841Z,74.29
2022-11-21T22:19:16.528Z,74.25
2022-11-21T22:21:46.283Z,74.51
2022-11-21T22:24:26.072Z,74.52
2022-11-21T22:26:55.289Z,74.38
2022-11-21T22:29:23.791Z,74.00
2022-11-21T22:31:52.110Z,73.96
2022-11-21T22:34:20.358Z,73.92
2022-11-21T22:36:50.106Z,73.94
2022-11-21T22:39:18.431Z,73.98
2022-11-21T22:41:47.105Z,74.23
2022-11-21T22:44:15.471Z,74.37
2022-11-21T22:46:43.731Z,74.59
2022-11-21T22:49:12.264Z,74.66
2022-11-21T22:51:40.521Z,75.29
2022-11-21T22:54:10.475Z,75.16
2022-11-21T22:56:38.781Z,75.53
2022-11-21T22:59:07.892Z,75.26
2022-11-21T23:01:36.407Z,74.97
2022-11-21T23:04:05.135Z,75.66
2022-11-21T23:06:33.495Z,76.31
2022-11-21T23:09:01.819Z,76.23
2022-11-21T23:11:39.406Z,76.83
2022-11-21T23:14:09.305Z,76.97
2022-11-21T23:16:37.625Z,77.51
2022-11-21T23:19:06.078Z,78.03
2022-11-21T23:21:34.668Z,79.09
2022-11-21T23:24:03.045Z,79.46
2022-11-21T23:26:32.867Z,79.92
2022-11-21T23:29:08.030Z,80.70
2022-11-21T23:31:37.556Z,81.02
2022-11-21T23:34:05.990Z,81.31
2022-11-21T23:36:34.333Z,81.70
2022-11-21T23:39:02.997Z,81.93
2022-11-21T23:41:32.751Z,82.01
2022-11-21T23:44:01.199Z,81.92
2022-11-21T23:46:30.446Z,82.00
2022-11-21T23:48:58.703Z,82.20
2022-11-21T23:51:27.016Z,82.20
2022-11-21T23:53:55.275Z,82.10
2022-11-21T23:56:23.735Z,82.20
2022-11-21T23:58:53.431Z,82.46
